createdAt,value
2023-01-31T00:01:14.002Z,96130.59
2023-01-31T00:03:41.081Z,96130.47
2023-01-31T00:06:24.477Z,96120.81
2023-01-31T00:08:51.509Z,96134.19
2023-01-31T00:11:18.900Z,96138.16
2023-01-31T00:13:45.932Z,96127.28
2023-01-31T00:16:13.324Z,96131.81
2023-01-31T00:18:40.112Z,96144.00
2023-01-31T00:21:11.657Z,96137.66
2023-01-31T00:23:39.052Z,96140.91
2023-01-31T00:26:13.413Z,96142.44
2023-01-31T00:28:40.165Z,96162.06
2023-01-31T00:31:07.297Z,96156.91
2023-01-31T00:33:35.074Z,96156.66
2023-01-31T00:36:09.714Z,96168.66
2023-01-31T00:38:36.896Z,96179.00
2023-01-31T00:41:04.417Z,96176.97
2023-01-31T00:43:31.314Z,96180.44
2023-01-31T00:45:58.010Z,96186.88
2023-01-31T00:48:24.777Z,96195.94
2023-01-31T00:50:51.312Z,96197.25
2023-01-31T00:53:23.309Z,96196.28
2023-01-31T00:55:53.322Z,96198.19
2023-01-31T00:58:19.838Z,96203.22
2023-01-31T01:00:46.992Z,96203.78
2023-01-31T01:03:13.791Z,96194.28
2023-01-31T01:05:40.407Z,96202.41
2023-01-31T01:08:07.063Z,96202.97
2023-01-31T01:10:34.172Z,96206.53
2023-01-31T01:13:01.200Z,96194.09
2023-01-31T01:15:28.027Z,96200.53
2023-01-31T01:17:55.541Z,96198.19
2023-01-31T01:20:22.073Z,96212.72
2023-01-31T01:22:48.600Z,96213.66
2023-01-31T01:25:15.132Z,96209.69
2023-01-31T01:27:41.693Z,96232.94
2023-01-31T01:30:08.629Z,96217.47
2023-01-31T01:32:35.119Z,96220.31
2023-01-31T01:35:01.658Z,96213.19
2023-01-31T01:37:28.225Z,96224.13
2023-01-31T01:39:54.741Z,96224.47
2023-01-31T01:42:22.797Z,96224.38
2023-01-31T01:44:49.455Z,96215.97
2023-01-31T01:47:22.170Z,96212.41
2023-01-31T01:49:51.280Z,96201.28
2023-01-31T01:52:18.409Z,96217.47
2023-01-31T01:58:20.551Z,96230.72
2023-01-31T02:00:47.327Z,96225.59
2023-01-31T02:03:14.426Z,96218.56
2023-01-31T02:05:43.882Z,96224.13
2023-01-31T02:08:10.841Z,96224.25
2023-01-31T02:10:42.132Z,96227.00
2023-01-31T02:13:08.875Z,96228.66
2023-01-31T02:15:35.954Z,96222.44
2023-01-31T02:18:02.609Z,96224.25
2023-01-31T02:20:49.159Z,96237.25
2023-01-31T02:23:21.619Z,96216.66
2023-01-31T02:26:07.085Z,96230.31
2023-01-31T02:28:56.432Z,96222.38
2023-01-31T02:31:38.063Z,96227.81
2023-01-31T02:34:10.858Z,96233.06
2023-01-31T02:37:03.445Z,96225.00
2023-01-31T02:39:42.002Z,96231.84
2023-01-31T02:42:11.322Z,96234.91
2023-01-31T02:44:59.489Z,96239.44
2023-01-31T02:47:26.013Z,96233.53
2023-01-31T02:50:18.798Z,96235.63
2023-01-31T02:53:05.763Z,96224.84
2023-01-31T02:55:59.873Z,96229.47
2023-01-31T02:58:28.333Z,96216.09
2023-01-31T03:00:58.469Z,96226.72
2023-01-31T03:03:27.277Z,96227.25
2023-01-31T03:06:33.672Z,96228.94
2023-01-31T03:09:26.261Z,96225.09
2023-01-31T03:11:58.802Z,96227.31
2023-01-31T03:14:45.563Z,96231.69
2023-01-31T03:17:32.849Z,96246.38
2023-01-31T03:20:04.068Z,96252.69
2023-01-31T03:22:35.924Z,96247.03
2023-01-31T03:25:05.587Z,96245.84
2023-01-31T03:27:34.149Z,96256.06
2023-01-31T03:30:08.794Z,96247.66
2023-01-31T03:32:39.869Z,96265.28
2023-01-31T03:35:06.834Z,96258.16
2023-01-31T03:37:41.552Z,96249.13
2023-01-31T03:40:13.301Z,96244.09
2023-01-31T03:42:45.818Z,96246.44
2023-01-31T03:45:23.510Z,96237.19
2023-01-31T03:47:51.164Z,96239.06
2023-01-31T03:50:26.762Z,96247.44
2023-01-31T03:53:11.401Z,96244.75
2023-01-31T03:55:42.940Z,96241.78
2023-01-31T03:58:10.347Z,96235.94
2023-01-31T04:00:39.081Z,96239.50
2023-01-31T04:03:16.590Z,96245.59
2023-01-31T04:05:43.419Z,96245.06
2023-01-31T04:08:09.951Z,96251.34
2023-01-31T04:10:37.027Z,96238.22
2023-01-31T04:13:03.544Z,96263.19
2023-01-31T04:15:30.160Z,96260.28
2023-01-31T04:17:56.744Z,96268.59
2023-01-31T04:20:23.300Z,96259.75
2023-01-31T04:22:49.809Z,96265.22
2023-01-31T04:25:16.378Z,96273.41
2023-01-31T04:27:42.996Z,96255.66
2023-01-31T04:30:09.858Z,96262.72
2023-01-31T04:32:36.686Z,96252.31
2023-01-31T04:35:03.302Z,96268.25
2023-01-31T04:37:29.908Z,96260.63
2023-01-31T04:39:56.436Z,96273.19
2023-01-31T04:42:22.883Z,96280.25
2023-01-31T04:44:49.449Z,96284.56
2023-01-31T04:47:16.003Z,96288.00
2023-01-31T04:49:44.231Z,96283.91
2023-01-31T04:52:11.205Z,96274.25
2023-01-31T04:54:37.896Z,96283.91
2023-01-31T04:57:04.539Z,96283.81
2023-01-31T04:59:31.122Z,96290.09
2023-01-31T05:01:57.682Z,96289.38
2023-01-31T05:04:25.647Z,96299.75
2023-01-31T05:06:52.673Z,96288.94
2023-01-31T05:09:19.250Z,96286.31
2023-01-31T05:11:45.884Z,96290.31
2023-01-31T05:14:13.925Z,96301.63
2023-01-31T05:16:41.066Z,96296.63
2023-01-31T05:19:07.729Z,96292.09
2023-01-31T05:21:54.242Z,96289.25
2023-01-31T05:24:24.096Z,96295.75
2023-01-31T05:26:52.975Z,96286.50
2023-01-31T05:29:19.738Z,96290.28
2023-01-31T05:31:46.308Z,96299.94
2023-01-31T05:34:15.370Z,96289.22
2023-01-31T05:36:42.917Z,96283.66
2023-01-31T05:39:09.533Z,96286.28
2023-01-31T05:41:36.048Z,96287.44
2023-01-31T05:44:02.775Z,96288.81
2023-01-31T05:46:29.499Z,96292.72
2023-01-31T05:48:56.017Z,96294.59
2023-01-31T05:51:22.586Z,96292.69
2023-01-31T05:53:49.470Z,96281.59
2023-01-31T05:56:16.744Z,96283.81
2023-01-31T05:58:43.342Z,96285.25
2023-01-31T06:01:09.867Z,96284.63
2023-01-31T06:03:36.393Z,96277.16
2023-01-31T06:06:05.235Z,96274.78
2023-01-31T06:08:32.225Z,96283.56
2023-01-31T06:11:01.263Z,96284.97
2023-01-31T06:13:27.796Z,96277.09
2023-01-31T06:15:54.313Z,96272.03
2023-01-31T06:18:20.883Z,96261.56
2023-01-31T06:20:47.422Z,96254.31
2023-01-31T06:23:13.944Z,96245.63
2023-01-31T06:25:40.454Z,96258.31
2023-01-31T06:28:06.986Z,96259.78
2023-01-31T06:30:33.978Z,96272.72
2023-01-31T06:33:00.582Z,96266.16
2023-01-31T06:35:27.121Z,96251.91
2023-01-31T06:37:55.100Z,96268.81
2023-01-31T06:40:21.682Z,96250.66
2023-01-31T06:42:48.268Z,96248.38
2023-01-31T06:45:14.798Z,96239.97
2023-01-31T06:47:41.414Z,96256.34
2023-01-31T06:50:08.175Z,96249.22
2023-01-31T06:52:34.680Z,96243.34
2023-01-31T06:55:01.214Z,96248.72
2023-01-31T06:57:27.724Z,96239.75
2023-01-31T06:59:54.251Z,96234.19
2023-01-31T07:02:20.764Z,96245.22
2023-01-31T07:04:47.632Z,96256.84
2023-01-31T07:07:14.212Z,96265.50
2023-01-31T07:09:40.713Z,96266.00
2023-01-31T07:12:07.294Z,96282.75
2023-01-31T07:14:33.937Z,96283.34
2023-01-31T07:17:00.424Z,96269.16
2023-01-31T07:19:26.969Z,96277.53
2023-01-31T07:21:53.477Z,96282.84
2023-01-31T07:24:20.101Z,96295.88
2023-01-31T07:26:46.603Z,96315.59
2023-01-31T07:29:13.149Z,96297.91
2023-01-31T07:31:40.000Z,96320.50
2023-01-31T07:34:06.515Z,96321.09
2023-01-31T07:36:33.339Z,96320.59
2023-01-31T07:39:01.903Z,96321.59
2023-01-31T07:41:28.446Z,96326.94
2023-01-31T07:43:55.014Z,96315.81
2023-01-31T07:46:21.703Z,96319.75
2023-01-31T07:48:48.359Z,96336.28
2023-01-31T07:51:14.984Z,96336.16
2023-01-31T07:53:44.505Z,96312.31
2023-01-31T07:56:12.914Z,96324.91
2023-01-31T07:58:39.833Z,96322.84
2023-01-31T08:01:25.004Z,96316.31
2023-01-31T08:03:52.012Z,96324.03
2023-01-31T08:06:19.012Z,96339.72
2023-01-31T08:08:46.160Z,96337.47
2023-01-31T08:11:13.036Z,96330.34
2023-01-31T08:13:39.822Z,96340.84
2023-01-31T08:16:07.493Z,96334.66
2023-01-31T08:18:34.178Z,96340.41
2023-01-31T08:21:00.995Z,96349.97
2023-01-31T08:23:27.999Z,96344.41
2023-01-31T08:26:20.820Z,96334.63
2023-01-31T08:28:48.445Z,96345.34
2023-01-31T08:31:19.494Z,96355.41
2023-01-31T08:33:46.333Z,96363.31
2023-01-31T08:36:15.407Z,96366.56
2023-01-31T08:38:42.283Z,96363.22
2023-01-31T08:41:08.846Z,96368.50
2023-01-31T08:43:53.692Z,96372.31
2023-01-31T08:46:23.021Z,96373.88
2023-01-31T08:48:49.576Z,96388.19
2023-01-31T08:51:16.131Z,96391.09
2023-01-31T08:53:46.322Z,96394.47
2023-01-31T08:56:13.459Z,96405.50
2023-01-31T08:58:41.900Z,96404.94
2023-01-31T09:01:11.870Z,96404.19
2023-01-31T09:03:38.567Z,96403.44
2023-01-31T09:06:06.833Z,96409.94
2023-01-31T09:08:33.797Z,96405.28
2023-01-31T09:11:03.224Z,96402.97
2023-01-31T09:13:30.323Z,96402.34
2023-01-31T09:16:01.011Z,96404.97
2023-01-31T09:18:27.570Z,96411.97
2023-01-31T09:20:54.209Z,96420.19
2023-01-31T09:23:20.798Z,96403.88
2023-01-31T09:25:54.907Z,96412.34
2023-01-31T09:28:22.208Z,96419.16
2023-01-31T09:30:49.164Z,96416.56
2023-01-31T09:33:15.889Z,96406.84
2023-01-31T09:35:42.749Z,96418.25
2023-01-31T09:38:09.310Z,96409.38
2023-01-31T09:40:38.054Z,96425.72
2023-01-31T09:43:05.203Z,96425.22
2023-01-31T09:45:37.112Z,96421.63
2023-01-31T09:48:05.608Z,96424.13
2023-01-31T09:50:37.971Z,96417.75
2023-01-31T09:53:04.671Z,96414.13
2023-01-31T09:55:31.144Z,96425.84
2023-01-31T09:58:04.580Z,96432.44
2023-01-31T10:00:31.612Z,96423.91
2023-01-31T10:03:18.580Z,96414.16
2023-01-31T10:06:03.257Z,96425.06
2023-01-31T10:08:40.007Z,96421.16
2023-01-31T10:11:12.533Z,96422.41
2023-01-31T10:13:43.688Z,96429.78
2023-01-31T10:16:28.107Z,96421.41
2023-01-31T10:18:58.044Z,96425.34
2023-01-31T10:21:32.778Z,96418.91
2023-01-31T10:24:17.838Z,96428.09
2023-01-31T10:26:46.461Z,96421.41
2023-01-31T10:29:21.204Z,96431.88
2023-01-31T10:32:13.878Z,96436.31
2023-01-31T10:34:56.265Z,96431.03
2023-01-31T10:37:42.163Z,96449.41
2023-01-31T10:40:15.364Z,96439.78
2023-01-31T10:42:44.267Z,96437.59
2023-01-31T10:45:31.075Z,96440.38
2023-01-31T10:48:05.106Z,96419.88
2023-01-31T10:50:34.191Z,96425.28
2023-01-31T10:53:20.937Z,96405.09
2023-01-31T10:55:47.431Z,96403.03
2023-01-31T10:58:14.955Z,96405.81
2023-01-31T11:00:41.580Z,96399.00
2023-01-31T11:03:10.532Z,96406.34
2023-01-31T11:05:40.000Z,96403.19
2023-01-31T11:08:18.097Z,96401.63
2023-01-31T11:10:52.362Z,96399.41
2023-01-31T11:13:19.618Z,96402.75
2023-01-31T11:15:48.376Z,96399.94
2023-01-31T11:18:17.533Z,96383.97
2023-01-31T11:20:47.889Z,96382.44
2023-01-31T11:23:17.042Z,96386.03
2023-01-31T11:25:50.960Z,96385.91
2023-01-31T11:28:37.803Z,96379.75
2023-01-31T11:31:05.622Z,96390.50
2023-01-31T11:33:42.120Z,96372.66
2023-01-31T11:36:10.093Z,96383.25
2023-01-31T11:38:36.680Z,96383.81
2023-01-31T11:41:23.159Z,96379.94
2023-01-31T11:43:49.695Z,96376.44
2023-01-31T11:46:16.646Z,96374.31
2023-01-31T11:48:44.353Z,96369.03
2023-01-31T11:51:20.860Z,96364.75
2023-01-31T11:53:49.532Z,96374.06
2023-01-31T11:56:27.734Z,96370.44
2023-01-31T11:58:56.272Z,96372.94
2023-01-31T12:01:24.680Z,96373.25
2023-01-31T12:04:02.719Z,96379.34
2023-01-31T12:06:34.779Z,96372.81
2023-01-31T12:09:02.952Z,96376.56
2023-01-31T12:11:31.353Z,96375.31
2023-01-31T12:14:13.034Z,96380.72
2023-01-31T12:16:39.758Z,96381.69
2023-01-31T12:19:06.381Z,96375.28
2023-01-31T12:21:52.339Z,96374.88
2023-01-31T12:24:21.612Z,96366.38
2023-01-31T12:27:02.135Z,96379.75
2023-01-31T12:29:37.615Z,96376.88
2023-01-31T12:32:22.792Z,96376.53
2023-01-31T12:35:05.097Z,96380.25
2023-01-31T12:37:33.645Z,96384.38
2023-01-31T12:40:22.829Z,96374.88
2023-01-31T12:42:55.254Z,96369.56
2023-01-31T12:45:24.656Z,96373.72
2023-01-31T12:47:54.003Z,96365.25
2023-01-31T12:50:37.415Z,96361.19
2023-01-31T12:53:25.233Z,96369.41
2023-01-31T12:56:17.158Z,96358.69
2023-01-31T12:58:49.630Z,96360.56
2023-01-31T13:01:19.333Z,96363.75
2023-01-31T13:03:58.271Z,96362.47
2023-01-31T13:06:28.104Z,96357.06
2023-01-31T13:09:08.233Z,96363.88
2023-01-31T13:11:41.092Z,96356.59
2023-01-31T13:14:12.801Z,96369.03
2023-01-31T13:16:42.137Z,96365.22
2023-01-31T13:19:18.654Z,96378.00
2023-01-31T13:21:47.329Z,96366.97
2023-01-31T13:24:18.088Z,96371.22
2023-01-31T13:26:47.473Z,96369.88
2023-01-31T13:29:36.169Z,96373.28
2023-01-31T13:32:08.766Z,96358.94
2023-01-31T13:34:39.933Z,96367.47
2023-01-31T13:37:10.379Z,96367.81
2023-01-31T13:39:41.700Z,96364.78
2023-01-31T13:42:11.262Z,96359.19
2023-01-31T13:44:37.852Z,96364.91
2023-01-31T13:47:12.695Z,96361.00
2023-01-31T13:50:05.644Z,96360.06
2023-01-31T13:52:36.116Z,96365.59
2023-01-31T13:55:08.060Z,96349.56
2023-01-31T13:57:45.575Z,96355.31
2023-01-31T14:00:15.115Z,96349.16
2023-01-31T14:02:59.352Z,96352.16
2023-01-31T14:05:41.276Z,96354.47
2023-01-31T14:08:26.408Z,96352.34
2023-01-31T14:10:56.849Z,96345.78
2023-01-31T14:13:27.040Z,96348.44
2023-01-31T14:15:54.665Z,96353.00
2023-01-31T14:18:37.558Z,96358.78
2023-01-31T14:21:22.872Z,96355.69
2023-01-31T14:23:49.479Z,96366.91
2023-01-31T14:26:36.434Z,96360.31
2023-01-31T14:29:10.511Z,96356.75
2023-01-31T14:31:37.148Z,96353.44
2023-01-31T14:34:03.816Z,96356.19
2023-01-31T14:36:43.957Z,96345.41
2023-01-31T14:39:22.786Z,96356.69
2023-01-31T14:41:55.378Z,96350.00
2023-01-31T14:44:36.778Z,96346.88
2023-01-31T14:47:12.440Z,96352.34
2023-01-31T14:49:44.955Z,96349.44
2023-01-31T14:52:34.086Z,96355.34
2023-01-31T14:55:03.676Z,96352.84
2023-01-31T14:57:47.780Z,96350.34
2023-01-31T15:00:14.278Z,96349.78
2023-01-31T15:03:10.357Z,96347.91
2023-01-31T15:05:37.621Z,96357.16
2023-01-31T15:08:16.138Z,96360.44
2023-01-31T15:11:04.647Z,96358.16
2023-01-31T15:13:33.991Z,96351.34
2023-01-31T15:16:01.085Z,96355.09
2023-01-31T15:18:29.129Z,96354.84
2023-01-31T15:20:57.891Z,96346.81
2023-01-31T15:23:29.890Z,96350.16
2023-01-31T15:25:58.448Z,96345.59
2023-01-31T15:28:30.194Z,96339.84
2023-01-31T15:31:00.143Z,96341.16
2023-01-31T15:33:34.916Z,96330.97
2023-01-31T15:36:20.378Z,96328.72
2023-01-31T15:38:46.887Z,96330.78
2023-01-31T15:41:32.784Z,96340.16
2023-01-31T15:44:10.837Z,96334.56
2023-01-31T15:46:37.381Z,96331.59
2023-01-31T15:49:36.614Z,96339.63
2023-01-31T15:52:07.970Z,96334.63
2023-01-31T15:54:35.224Z,96327.09
2023-01-31T15:57:02.477Z,96330.91
2023-01-31T15:59:31.129Z,96332.47
2023-01-31T16:02:00.053Z,96342.16
2023-01-31T16:04:27.731Z,96349.47
2023-01-31T16:06:54.568Z,96351.34
2023-01-31T16:09:29.773Z,96356.63
2023-01-31T16:11:57.960Z,96357.81
2023-01-31T16:14:25.299Z,96341.28
2023-01-31T16:16:53.288Z,96338.53
2023-01-31T16:19:25.716Z,96339.97
2023-01-31T16:21:52.752Z,96339.47
2023-01-31T16:24:20.495Z,96325.88
2023-01-31T16:26:59.256Z,96328.72
2023-01-31T16:29:31.991Z,96331.34
2023-01-31T16:31:58.598Z,96340.03
2023-01-31T16:34:27.610Z,96331.91
2023-01-31T16:37:12.841Z,96335.25
2023-01-31T16:39:46.949Z,96333.78
2023-01-31T16:42:16.314Z,96342.16
2023-01-31T16:44:44.556Z,96336.63
2023-01-31T16:47:29.837Z,96340.88
2023-01-31T16:50:14.849Z,96341.84
2023-01-31T16:52:42.393Z,96348.56
2023-01-31T16:55:22.620Z,96360.97
2023-01-31T16:57:49.466Z,96351.31
2023-01-31T17:00:22.447Z,96336.75
2023-01-31T17:02:49.361Z,96339.75
2023-01-31T17:05:18.932Z,96336.88
2023-01-31T17:07:46.414Z,96336.47
2023-01-31T17:10:19.269Z,96340.78
2023-01-31T17:12:46.017Z,96341.69
2023-01-31T17:15:14.584Z,96344.28
2023-01-31T17:17:41.213Z,96346.66
2023-01-31T17:20:08.207Z,96370.16
2023-01-31T17:22:34.807Z,96356.06
2023-01-31T17:25:01.380Z,96340.63
2023-01-31T17:27:27.958Z,96355.28
2023-01-31T17:29:54.576Z,96349.78
2023-01-31T17:32:21.762Z,96352.53
2023-01-31T17:34:49.047Z,96336.38
2023-01-31T17:37:20.706Z,96327.06
2023-01-31T17:39:50.155Z,96342.75
2023-01-31T17:42:18.411Z,96337.09
2023-01-31T17:44:45.040Z,96362.25
2023-01-31T17:47:11.703Z,96348.50
2023-01-31T17:49:38.431Z,96347.50
2023-01-31T17:52:05.507Z,96346.03
2023-01-31T17:54:32.101Z,96342.72
2023-01-31T17:56:58.664Z,96334.50
2023-01-31T17:59:27.245Z,96311.22
2023-01-31T18:01:54.719Z,96319.50
2023-01-31T18:04:21.564Z,96323.94
2023-01-31T18:06:48.246Z,96330.22
2023-01-31T18:09:17.092Z,96321.84
2023-01-31T18:11:44.586Z,96326.34
2023-01-31T18:14:12.296Z,96315.25
2023-01-31T18:16:38.959Z,96313.16
2023-01-31T18:19:05.540Z,96338.13
2023-01-31T18:21:32.208Z,96351.03
2023-01-31T18:24:00.162Z,96346.19
2023-01-31T18:26:26.822Z,96331.13
2023-01-31T18:28:55.526Z,96338.13
2023-01-31T18:31:22.197Z,96362.25
2023-01-31T18:33:49.137Z,96366.38
2023-01-31T18:36:16.838Z,96347.66
2023-01-31T18:38:45.964Z,96330.78
2023-01-31T18:41:14.717Z,96338.34
2023-01-31T18:43:42.011Z,96345.16
2023-01-31T18:46:10.345Z,96347.38
2023-01-31T18:48:37.638Z,96327.13
2023-01-31T18:51:07.715Z,96327.78
2023-01-31T18:53:35.232Z,96324.81
2023-01-31T18:56:05.506Z,96303.94
2023-01-31T18:58:33.092Z,96321.56
2023-01-31T19:01:06.952Z,96327.72
2023-01-31T19:03:33.838Z,96327.00
2023-01-31T19:06:04.599Z,96320.69
2023-01-31T19:08:31.165Z,96318.28
2023-01-31T19:11:02.399Z,96329.91
2023-01-31T19:13:29.449Z,96319.13
2023-01-31T19:15:59.791Z,96311.25
2023-01-31T19:18:26.365Z,96304.31
2023-01-31T19:20:52.846Z,96311.56
2023-01-31T19:23:19.488Z,96307.81
2023-01-31T19:25:46.007Z,96301.91
2023-01-31T19:28:12.538Z,96298.13
2023-01-31T19:30:39.553Z,96309.34
2023-01-31T19:33:06.736Z,96310.34
2023-01-31T19:35:33.670Z,96308.13
2023-01-31T19:38:00.194Z,96304.59
2023-01-31T19:40:26.719Z,96297.22
2023-01-31T19:42:53.456Z,96278.66
2023-01-31T19:45:22.604Z,96284.22
2023-01-31T19:47:49.660Z,96286.94
2023-01-31T19:50:16.384Z,96282.22
2023-01-31T19:52:42.890Z,96288.59
2023-01-31T19:55:09.456Z,96297.78
2023-01-31T19:57:36.002Z,96299.75
2023-01-31T20:00:02.715Z,96305.31
2023-01-31T20:02:29.385Z,96307.84
2023-01-31T20:04:57.810Z,96313.72
2023-01-31T20:07:24.535Z,96298.13
2023-01-31T20:09:51.034Z,96303.47
2023-01-31T20:12:17.597Z,96285.75
2023-01-31T20:14:44.127Z,96294.72
2023-01-31T20:17:10.616Z,96287.72
2023-01-31T20:19:37.158Z,96282.44
2023-01-31T20:22:03.622Z,96281.03
2023-01-31T20:24:30.263Z,96282.44
2023-01-31T20:26:57.417Z,96288.47
2023-01-31T20:29:25.031Z,96282.56
2023-01-31T20:31:51.759Z,96291.50
2023-01-31T20:34:18.324Z,96285.75
2023-01-31T20:36:44.833Z,96290.13
2023-01-31T20:39:12.345Z,96296.13
2023-01-31T20:41:38.825Z,96306.91
2023-01-31T20:44:05.411Z,96296.22
2023-01-31T20:46:31.900Z,96293.72
2023-01-31T20:48:58.439Z,96311.06
2023-01-31T20:51:24.984Z,96305.09
2023-01-31T20:53:51.714Z,96291.78
2023-01-31T20:56:18.251Z,96277.91
2023-01-31T20:58:44.862Z,96286.06
2023-01-31T21:01:11.799Z,96282.44
2023-01-31T21:03:38.364Z,96286.69
2023-01-31T21:06:05.412Z,96279.16
2023-01-31T21:08:32.338Z,96282.38
2023-01-31T21:10:59.308Z,96284.97
2023-01-31T21:13:28.871Z,96270.75
2023-01-31T21:15:59.428Z,96280.06
2023-01-31T21:18:26.808Z,96280.88
2023-01-31T21:20:53.315Z,96275.19
2023-01-31T21:23:19.860Z,96264.50
2023-01-31T21:25:46.452Z,96263.94
2023-01-31T21:28:13.043Z,96269.59
2023-01-31T21:30:39.688Z,96273.84
2023-01-31T21:33:06.269Z,96265.94
2023-01-31T21:35:32.824Z,96267.47
2023-01-31T21:37:59.300Z,96294.84
2023-01-31T21:40:26.068Z,96286.47
2023-01-31T21:42:53.385Z,96278.13
2023-01-31T21:45:39.737Z,96292.44
2023-01-31T21:48:26.276Z,96290.00
2023-01-31T21:50:52.814Z,96304.75
2023-01-31T21:53:19.349Z,96314.56
2023-01-31T21:55:45.846Z,96313.06
2023-01-31T21:58:12.396Z,96308.88
2023-01-31T22:00:38.999Z,96317.53
2023-01-31T22:03:05.566Z,96311.16
2023-01-31T22:05:32.218Z,96318.66
2023-01-31T22:07:59.020Z,96304.16
2023-01-31T22:10:25.509Z,96301.00
2023-01-31T22:12:51.983Z,96297.50
2023-01-31T22:15:18.567Z,96299.63
2023-01-31T22:17:45.045Z,96299.06
2023-01-31T22:20:12.206Z,96298.16
2023-01-31T22:22:38.685Z,96300.50
2023-01-31T22:25:05.435Z,96303.47
2023-01-31T22:27:31.940Z,96299.75
2023-01-31T22:30:06.593Z,96308.56
2023-01-31T22:32:40.628Z,96307.38
2023-01-31T22:35:07.327Z,96289.84
2023-01-31T22:37:33.805Z,96286.91
2023-01-31T22:40:00.391Z,96295.53
2023-01-31T22:42:26.876Z,96292.38
2023-01-31T22:44:53.486Z,96307.59
2023-01-31T22:47:19.997Z,96304.13
2023-01-31T22:49:46.543Z,96292.66
2023-01-31T22:52:13.097Z,96300.97
2023-01-31T22:54:39.588Z,96294.97
2023-01-31T22:57:06.105Z,96281.06
2023-01-31T22:59:32.669Z,96271.81
2023-01-31T23:01:59.168Z,96271.88
2023-01-31T23:04:25.720Z,96257.56
2023-01-31T23:06:52.291Z,96257.03
2023-01-31T23:09:18.799Z,96251.75
2023-01-31T23:11:45.327Z,96240.81
2023-01-31T23:14:11.812Z,96259.59
2023-01-31T23:16:56.643Z,96256.84
2023-01-31T23:19:23.186Z,96257.50
2023-01-31T23:21:49.726Z,96251.56
2023-01-31T23:24:16.528Z,96250.72
2023-01-31T23:26:43.291Z,96238.53
2023-01-31T23:29:09.916Z,96234.38
2023-01-31T23:31:36.587Z,96250.75
2023-01-31T23:34:05.990Z,96252.78
2023-01-31T23:36:32.564Z,96254.16
2023-01-31T23:38:59.078Z,96253.94
2023-01-31T23:41:25.611Z,96244.91
2023-01-31T23:43:52.141Z,96256.06
2023-01-31T23:46:18.760Z,96258.56
2023-01-31T23:48:45.373Z,96260.44
2023-01-31T23:51:11.853Z,96247.88
2023-01-31T23:53:38.336Z,96250.56
2023-01-31T23:56:04.979Z,96246.94
2023-01-31T23:58:31.481Z,96234.56
